Time;durP1;ratioP1;P1;durP2;ratioP2;P2;SDS_P1;SDS_P2;PMS_P1;PMS_P2;Temp;Humidity;BMP_temperature;BMP_pressure;BME280_temperature;BME280_humidity;BME280_pressure;Samples;Min_cycle;Max_cycle;Signal;HPM_P1;HPM_P2
2022/01/26 00:06:42;;;;;;;57.67;24.70;;;;;;;;;;5051778;28;20053;-57
2022/01/26 00:09:09;;;;;;;52.25;22.83;;;;;;;;;;5062331;28;20048;-59
2022/01/26 00:11:36;;;;;;;52.08;22.67;;;;;;;;;;5055740;28;20520;-57
2022/01/26 00:14:10;;;;;;;52.53;23.92;;;;;;;;;;5046741;28;20045;-58
2022/01/26 00:16:44;;;;;;;53.00;23.27;;;;;;;;;;5055710;28;20120;-60
2022/01/26 00:19:15;;;;;;;52.53;22.88;;;;;;;;;;5056095;28;20142;-56
2022/01/26 00:21:49;;;;;;;47.42;21.65;;;;;;;;;;5056353;28;20049;-57
2022/01/26 00:27:29;;;;;;;52.38;23.40;;;;;;;;;;5052442;28;20049;-56
2022/01/26 00:31:12;;;;;;;53.58;24.70;;;;;;;;;;5065571;28;20069;-52
2022/01/26 00:39:01;;;;;;;47.17;22.48;;;;;;;;;;5075426;28;20064;-57
2022/01/26 00:41:07;;;;;;;53.72;22.08;;;;;;;;;;5043501;28;20049;-56
2022/01/26 00:43:34;;;;;;;51.83;23.60;;;;;;;;;;5055531;28;20045;-56
2022/01/26 00:46:03;;;;;;;51.35;24.35;;;;;;;;;;5067582;28;20054;-55
2022/01/26 00:48:31;;;;;;;47.60;21.85;;;;;;;;;;5058001;28;20520;-59
2022/01/26 00:51:01;;;;;;;50.55;21.63;;;;;;;;;;5072689;28;20063;-57
2022/01/26 00:53:33;;;;;;;49.03;22.23;;;;;;;;;;5067792;28;20160;-57
2022/01/26 00:56:00;;;;;;;48.70;22.33;;;;;;;;;;5065403;28;20532;-55
2022/01/26 00:58:27;;;;;;;57.33;22.15;;;;;;;;;;5064903;28;20057;-57
2022/01/26 01:00:54;;;;;;;50.67;22.90;;;;;;;;;;5070465;28;20063;-57
2022/01/26 01:03:22;;;;;;;47.55;20.33;;;;;;;;;;5066388;28;20041;-57
2022/01/26 01:06:07;;;;;;;48.60;21.08;;;;;;;;;;5060072;28;20081;-55
2022/01/26 01:08:33;;;;;;;47.53;21.80;;;;;;;;;;5055268;28;20141;-55
2022/01/26 01:11:00;;;;;;;47.92;20.88;;;;;;;;;;5054782;28;20063;-54
2022/01/26 01:13:37;;;;;;;47.33;20.67;;;;;;;;;;5055377;28;20057;-57
2022/01/26 01:16:05;;;;;;;46.85;20.70;;;;;;;;;;5067967;28;20049;-57
2022/01/26 01:18:42;;;;;;;44.50;20.95;;;;;;;;;;5054995;28;20140;-55
2022/01/26 01:32:01;;;;;;;44.92;19.17;;;;;;;;;;5066152;28;20064;-54
2022/01/26 01:34:38;;;;;;;54.60;21.92;;;;;;;;;;5060392;28;20489;-58
2022/01/26 01:37:07;;;;;;;44.08;20.27;;;;;;;;;;5061996;28;20081;-58
2022/01/26 01:39:35;;;;;;;48.10;20.60;;;;;;;;;;5056055;28;20061;-57
2022/01/26 01:42:03;;;;;;;47.55;19.77;;;;;;;;;;5071339;28;20084;-59
2022/01/26 01:44:29;;;;;;;43.85;19.23;;;;;;;;;;5051383;28;20135;-58
2022/01/26 01:46:57;;;;;;;48.75;21.30;;;;;;;;;;5054978;28;20053;-58
2022/01/26 01:49:23;;;;;;;44.53;20.10;;;;;;;;;;5043331;28;20052;-59
2022/01/26 01:51:58;;;;;;;38.28;18.10;;;;;;;;;;5070699;28;20053;-55
2022/01/26 01:54:24;;;;;;;45.90;19.40;;;;;;;;;;5061138;28;20059;-57
2022/01/26 01:56:56;;;;;;;42.03;19.77;;;;;;;;;;5072715;28;20412;-57
2022/01/26 01:59:23;;;;;;;41.78;19.50;;;;;;;;;;5066819;28;20140;-58
2022/01/26 02:01:50;;;;;;;42.67;19.77;;;;;;;;;;5066941;28;20075;-57
2022/01/26 02:04:17;;;;;;;41.97;19.80;;;;;;;;;;5059465;28;20054;-57
2022/01/26 02:06:43;;;;;;;45.58;20.27;;;;;;;;;;5054421;28;20053;-58
2022/01/26 02:09:11;;;;;;;45.80;20.67;;;;;;;;;;5054147;28;20053;-58
2022/01/26 02:11:45;;;;;;;44.95;20.40;;;;;;;;;;5054533;28;20073;-59
2022/01/26 02:14:18;;;;;;;47.47;21.40;;;;;;;;;;5054459;28;20139;-59
2022/01/26 02:54:51;;;;;;;58.50;24.67;;;;;;;;;;5066052;28;20140;-56
2022/01/26 03:00:24;;;;;;;54.42;26.05;;;;;;;;;;5053251;28;20084;-66
2022/01/26 03:02:58;;;;;;;59.50;26.00;;;;;;;;;;5052366;28;20058;-66
2022/01/26 03:05:31;;;;;;;55.13;26.45;;;;;;;;;;5052689;28;20049;-65
2022/01/26 03:08:03;;;;;;;57.92;25.58;;;;;;;;;;5053588;28;20056;-66
2022/01/26 03:10:45;;;;;;;57.55;27.85;;;;;;;;;;5052968;28;20139;-65
2022/01/26 03:13:18;;;;;;;69.85;30.35;;;;;;;;;;5052533;28;20136;-66
2022/01/26 03:15:56;;;;;;;68.32;30.17;;;;;;;;;;5072206;28;20506;-66
2022/01/26 03:21:01;;;;;;;76.35;33.80;;;;;;;;;;5053162;28;20058;-65
2022/01/26 03:34:14;;;;;;;75.38;34.60;;;;;;;;;;5058436;28;20083;-65
2022/01/26 03:36:53;;;;;;;80.60;35.35;;;;;;;;;;5052897;28;20469;-65
2022/01/26 03:39:21;;;;;;;75.82;33.65;;;;;;;;;;5052419;28;20053;-65
2022/01/26 03:41:55;;;;;;;81.32;34.42;;;;;;;;;;5054958;28;20503;-65
2022/01/26 03:44:21;;;;;;;81.80;35.08;;;;;;;;;;5060929;28;20088;-65
2022/01/26 03:46:48;;;;;;;79.82;35.30;;;;;;;;;;5075204;28;20061;-66
2022/01/26 03:49:15;;;;;;;78.68;33.65;;;;;;;;;;5067941;28;20081;-66
2022/01/26 03:51:41;;;;;;;84.60;37.00;;;;;;;;;;5056099;28;20437;-65
2022/01/26 03:54:08;;;;;;;78.28;33.63;;;;;;;;;;5063083;28;20179;-66
2022/01/26 03:56:35;;;;;;;76.13;35.22;;;;;;;;;;5055939;28;20111;-66
2022/01/26 03:59:02;;;;;;;85.70;36.97;;;;;;;;;;5064764;28;20058;-65
2022/01/26 04:01:28;;;;;;;82.68;36.30;;;;;;;;;;5059228;28;20055;-64
2022/01/26 04:03:55;;;;;;;84.45;35.88;;;;;;;;;;5067073;28;20056;-65
2022/01/26 04:06:22;;;;;;;81.93;36.70;;;;;;;;;;5055877;28;20516;-66
2022/01/26 04:08:48;;;;;;;86.28;37.28;;;;;;;;;;5056252;28;20062;-66
2022/01/26 04:14:04;;;;;;;82.05;36.70;;;;;;;;;;5068278;28;20064;-66
2022/01/26 04:16:30;;;;;;;83.85;37.50;;;;;;;;;;5055947;28;20054;-67
2022/01/26 04:18:57;;;;;;;85.32;38.53;;;;;;;;;;5073953;28;20056;-65
2022/01/26 04:24:04;;;;;;;80.03;36.28;;;;;;;;;;5069421;28;20046;-66
2022/01/26 04:26:47;;;;;;;89.77;37.93;;;;;;;;;;5055212;28;20057;-67
2022/01/26 04:29:20;;;;;;;82.88;38.50;;;;;;;;;;5057606;28;20057;-66
2022/01/26 04:31:47;;;;;;;88.70;38.28;;;;;;;;;;5055739;28;20564;-66
2022/01/26 04:34:13;;;;;;;82.30;34.78;;;;;;;;;;5062658;28;20499;-65
2022/01/26 04:36:47;;;;;;;77.57;36.28;;;;;;;;;;5061998;28;20145;-65
2022/01/26 04:39:18;;;;;;;81.45;38.33;;;;;;;;;;5055301;28;20053;-65
2022/01/26 04:44:36;;;;;;;83.13;38.78;;;;;;;;;;5067709;28;20076;-65
2022/01/26 04:47:03;;;;;;;84.05;39.97;;;;;;;;;;5074891;28;20498;-66
2022/01/26 04:49:29;;;;;;;84.10;38.90;;;;;;;;;;5059018;28;20053;-66
2022/01/26 04:51:57;;;;;;;86.80;39.90;;;;;;;;;;5074425;28;20083;-66
2022/01/26 04:54:23;;;;;;;90.90;40.15;;;;;;;;;;5065036;28;20071;-66
2022/01/26 04:56:50;;;;;;;83.40;38.92;;;;;;;;;;5054759;28;20065;-67
2022/01/26 04:59:16;;;;;;;94.60;40.22;;;;;;;;;;5055021;28;20054;-66
2022/01/26 05:01:42;;;;;;;83.10;39.38;;;;;;;;;;5056746;28;20053;-66
2022/01/26 05:04:09;;;;;;;87.95;38.45;;;;;;;;;;5055427;28;20063;-65
2022/01/26 05:06:35;;;;;;;86.38;40.75;;;;;;;;;;5034998;28;20516;-66
2022/01/26 05:09:02;;;;;;;97.70;39.92;;;;;;;;;;5058307;28;20131;-66
2022/01/26 05:11:38;;;;;;;92.15;41.42;;;;;;;;;;5074838;28;20048;-66
2022/01/26 05:14:05;;;;;;;85.20;38.65;;;;;;;;;;5057365;28;20144;-66
2022/01/26 05:16:31;;;;;;;86.97;40.60;;;;;;;;;;5058835;28;20513;-66
2022/01/26 05:18:58;;;;;;;84.80;38.33;;;;;;;;;;5054696;28;20057;-66
2022/01/26 05:21:25;;;;;;;87.50;40.25;;;;;;;;;;5054808;28;20063;-66
2022/01/26 05:23:52;;;;;;;88.20;37.15;;;;;;;;;;5055518;28;20156;-65
2022/01/26 05:26:19;;;;;;;90.40;39.75;;;;;;;;;;5065315;28;20056;-65
2022/01/26 05:28:45;;;;;;;91.78;41.13;;;;;;;;;;5058682;28;20049;-65
2022/01/26 05:31:12;;;;;;;89.78;40.05;;;;;;;;;;5056988;28;20053;-65
2022/01/26 05:33:38;;;;;;;89.88;40.22;;;;;;;;;;5073734;28;20220;-65
2022/01/26 05:36:05;;;;;;;91.95;41.72;;;;;;;;;;5074130;28;20150;-66
2022/01/26 05:38:31;;;;;;;91.78;40.75;;;;;;;;;;5073728;28;20059;-66
2022/01/26 05:41:01;;;;;;;98.18;40.53;;;;;;;;;;5059869;28;20529;-65
2022/01/26 05:43:29;;;;;;;92.68;40.38;;;;;;;;;;5057808;28;20045;-65
2022/01/26 05:46:00;;;;;;;93.13;41.20;;;;;;;;;;5054754;28;20493;-65
2022/01/26 05:48:26;;;;;;;94.25;41.75;;;;;;;;;;5054381;28;20132;-65
2022/01/26 05:50:55;;;;;;;96.50;41.03;;;;;;;;;;5056771;28;20085;-65
2022/01/26 05:53:21;;;;;;;98.28;43.90;;;;;;;;;;5039874;28;20085;-66
2022/01/26 05:55:53;;;;;;;91.30;40.13;;;;;;;;;;5053816;28;20156;-66
2022/01/26 05:58:19;;;;;;;90.07;40.33;;;;;;;;;;5052800;28;20081;-66
2022/01/26 06:00:45;;;;;;;94.63;41.60;;;;;;;;;;5053294;28;20053;-64
2022/01/26 06:03:12;;;;;;;93.97;41.50;;;;;;;;;;5039612;28;20057;-67
2022/01/26 06:05:38;;;;;;;99.47;41.90;;;;;;;;;;5053195;28;20489;-66
2022/01/26 06:08:05;;;;;;;92.45;39.95;;;;;;;;;;5053308;28;20061;-66
2022/01/26 06:10:32;;;;;;;93.57;40.25;;;;;;;;;;5053521;28;20056;-66
2022/01/26 06:12:58;;;;;;;94.47;41.95;;;;;;;;;;5053010;28;20062;-66
2022/01/26 06:15:25;;;;;;;101.05;42.45;;;;;;;;;;5053920;28;20057;-66
2022/01/26 06:17:51;;;;;;;97.70;42.38;;;;;;;;;;5053314;28;20104;-65
2022/01/26 06:20:17;;;;;;;100.20;41.28;;;;;;;;;;5053529;28;20061;-64
2022/01/26 06:22:44;;;;;;;107.38;44.35;;;;;;;;;;5053117;28;20053;-65
2022/01/26 06:25:10;;;;;;;97.75;43.67;;;;;;;;;;5053739;28;20063;-65
2022/01/26 06:27:37;;;;;;;104.68;42.58;;;;;;;;;;5052341;28;20064;-65
2022/01/26 06:30:05;;;;;;;103.15;42.00;;;;;;;;;;5053186;28;20557;-66
2022/01/26 06:32:31;;;;;;;106.97;43.25;;;;;;;;;;5052217;28;20563;-66
2022/01/26 06:34:58;;;;;;;107.00;42.72;;;;;;;;;;5053257;28;20851;-66
2022/01/26 06:37:24;;;;;;;101.22;41.35;;;;;;;;;;5052896;28;20049;-66
2022/01/26 06:39:53;;;;;;;107.65;43.30;;;;;;;;;;5051576;28;20585;-64
2022/01/26 06:42:26;;;;;;;112.07;44.13;;;;;;;;;;5049665;28;20108;-67
2022/01/26 06:45:17;;;;;;;104.68;42.50;;;;;;;;;;5059112;28;20054;-66
2022/01/26 06:50:18;;;;;;;104.20;43.53;;;;;;;;;;5054905;28;20488;-67
2022/01/26 06:52:46;;;;;;;109.72;43.88;;;;;;;;;;5058147;28;20060;-66
2022/01/26 06:55:12;;;;;;;112.47;44.70;;;;;;;;;;5058499;28;20505;-66
2022/01/26 06:57:39;;;;;;;101.47;41.72;;;;;;;;;;5056188;28;21803;-65
2022/01/26 07:00:06;;;;;;;108.95;43.38;;;;;;;;;;5053184;28;20134;-66
2022/01/26 07:02:32;;;;;;;105.95;44.58;;;;;;;;;;5070573;28;20132;-67
2022/01/26 07:04:59;;;;;;;108.15;45.00;;;;;;;;;;5054359;28;20141;-66
2022/01/26 07:07:25;;;;;;;106.82;42.50;;;;;;;;;;5054068;28;20053;-66
2022/01/26 07:09:51;;;;;;;109.85;45.58;;;;;;;;;;5056523;28;20054;-66
2022/01/26 07:12:18;;;;;;;107.43;42.53;;;;;;;;;;5058344;28;20057;-65
2022/01/26 07:23:01;;;;;;;112.78;45.03;;;;;;;;;;5052871;28;20149;-67
2022/01/26 07:25:27;;;;;;;114.70;43.35;;;;;;;;;;5053389;28;20046;-66
2022/01/26 07:27:57;;;;;;;106.88;43.65;;;;;;;;;;5053284;28;20053;-67
2022/01/26 07:30:23;;;;;;;105.28;42.42;;;;;;;;;;5062000;28;20049;-66
2022/01/26 07:32:50;;;;;;;110.30;41.35;;;;;;;;;;5057362;28;20084;-66
2022/01/26 07:35:16;;;;;;;110.40;42.55;;;;;;;;;;5055484;28;20056;-65
2022/01/26 07:37:44;;;;;;;111.82;42.75;;;;;;;;;;5053948;28;20077;-67
2022/01/26 07:40:10;;;;;;;109.07;44.65;;;;;;;;;;5054196;28;20053;-66
2022/01/26 07:42:37;;;;;;;113.13;44.75;;;;;;;;;;5054426;28;20064;-65
2022/01/26 07:45:04;;;;;;;114.78;46.00;;;;;;;;;;5054046;28;20077;-66
2022/01/26 07:47:31;;;;;;;103.10;41.17;;;;;;;;;;5050620;28;20144;-66
2022/01/26 07:50:04;;;;;;;111.22;43.95;;;;;;;;;;5071570;28;20136;-66
2022/01/26 07:52:35;;;;;;;105.07;44.20;;;;;;;;;;5062653;28;20386;-65
2022/01/26 07:55:01;;;;;;;108.18;42.80;;;;;;;;;;5052612;28;20054;-66
2022/01/26 07:57:27;;;;;;;107.05;42.58;;;;;;;;;;5057539;28;20146;-65
2022/01/26 07:59:54;;;;;;;93.78;40.47;;;;;;;;;;5059263;28;20053;-67
2022/01/26 08:02:21;;;;;;;103.75;39.55;;;;;;;;;;5053647;28;20157;-67
2022/01/26 08:04:48;;;;;;;89.90;37.67;;;;;;;;;;5062454;28;20049;-66
2022/01/26 08:07:14;;;;;;;85.15;37.03;;;;;;;;;;5072119;28;20061;-68
2022/01/26 08:09:44;;;;;;;85.75;37.33;;;;;;;;;;5058410;28;20053;-66
2022/01/26 08:12:11;;;;;;;73.80;33.72;;;;;;;;;;5055785;28;20497;-65
2022/01/26 08:14:38;;;;;;;73.60;34.75;;;;;;;;;;5058331;28;20049;-68
2022/01/26 08:17:06;;;;;;;73.03;33.20;;;;;;;;;;5057023;28;20100;-67
2022/01/26 08:19:33;;;;;;;73.82;33.53;;;;;;;;;;5056947;28;20600;-66
2022/01/26 08:22:01;;;;;;;71.05;33.35;;;;;;;;;;5053585;28;20077;-66
2022/01/26 08:24:28;;;;;;;73.45;32.78;;;;;;;;;;5052182;28;20080;-65
2022/01/26 08:26:57;;;;;;;69.57;31.33;;;;;;;;;;5051725;28;20152;-65
2022/01/26 08:32:24;;;;;;;71.97;30.13;;;;;;;;;;5057969;28;20056;-66
2022/01/26 08:34:51;;;;;;;61.35;29.60;;;;;;;;;;5059925;28;20057;-67
2022/01/26 08:37:19;;;;;;;65.05;30.77;;;;;;;;;;5053393;28;20050;-65
2022/01/26 08:39:45;;;;;;;66.22;30.38;;;;;;;;;;5063847;28;20148;-64
2022/01/26 08:42:12;;;;;;;59.85;27.95;;;;;;;;;;5054774;28;20084;-64
2022/01/26 08:44:39;;;;;;;71.53;30.00;;;;;;;;;;5051472;28;20132;-65
2022/01/26 08:47:06;;;;;;;60.10;28.88;;;;;;;;;;5055245;28;20050;-65
2022/01/26 08:49:34;;;;;;;74.03;30.80;;;;;;;;;;5054498;28;20116;-64
2022/01/26 08:52:00;;;;;;;67.70;30.90;;;;;;;;;;5055112;28;20076;-65
2022/01/26 08:54:27;;;;;;;68.80;31.35;;;;;;;;;;5056706;28;20144;-65
2022/01/26 08:56:53;;;;;;;64.53;31.02;;;;;;;;;;5064946;28;20444;-66
2022/01/26 08:59:21;;;;;;;67.40;30.85;;;;;;;;;;5054919;28;20092;-65
2022/01/26 09:01:47;;;;;;;65.13;30.80;;;;;;;;;;5054597;28;20485;-65
2022/01/26 09:04:14;;;;;;;65.72;29.15;;;;;;;;;;5054348;28;20508;-66
2022/01/26 09:06:51;;;;;;;64.78;31.05;;;;;;;;;;5058159;28;20136;-65
2022/01/26 09:09:20;;;;;;;70.30;33.95;;;;;;;;;;5060514;28;20520;-64
2022/01/26 09:11:47;;;;;;;68.85;32.13;;;;;;;;;;5056230;28;20049;-66
2022/01/26 09:14:19;;;;;;;77.97;38.25;;;;;;;;;;5071228;28;20560;-65
2022/01/26 09:16:46;;;;;;;73.90;32.65;;;;;;;;;;5057737;28;20049;-65
2022/01/26 09:19:31;;;;;;;69.28;32.90;;;;;;;;;;5052658;28;20060;-64
2022/01/26 09:22:00;;;;;;;68.22;32.15;;;;;;;;;;5047940;28;20053;-66
2022/01/26 09:24:27;;;;;;;66.07;30.48;;;;;;;;;;5052445;28;20464;-65
2022/01/26 09:26:53;;;;;;;65.03;31.15;;;;;;;;;;5053962;28;20089;-66
2022/01/26 09:29:20;;;;;;;78.57;35.75;;;;;;;;;;5054186;28;20053;-67
2022/01/26 09:31:50;;;;;;;72.47;32.03;;;;;;;;;;5053395;28;20054;-68
2022/01/26 09:34:17;;;;;;;69.13;32.28;;;;;;;;;;5054205;28;20092;-67
2022/01/26 09:36:44;;;;;;;66.40;28.83;;;;;;;;;;5054792;28;20053;-68
2022/01/26 09:39:11;;;;;;;68.13;28.23;;;;;;;;;;5067211;28;20084;-67
2022/01/26 09:41:38;;;;;;;62.47;28.70;;;;;;;;;;5056435;28;20050;-67
2022/01/26 09:44:04;;;;;;;63.67;29.35;;;;;;;;;;5057300;28;20051;-68
2022/01/26 09:46:31;;;;;;;52.03;25.63;;;;;;;;;;5053718;28;20484;-67
2022/01/26 09:48:58;;;;;;;58.72;26.00;;;;;;;;;;5053388;28;20049;-68
2022/01/26 09:51:24;;;;;;;56.10;24.25;;;;;;;;;;5053947;28;20141;-67
2022/01/26 09:54:04;;;;;;;70.07;29.42;;;;;;;;;;5053633;28;20141;-68
2022/01/26 09:56:30;;;;;;;53.17;24.55;;;;;;;;;;5053896;28;20586;-68
2022/01/26 09:58:57;;;;;;;72.03;30.23;;;;;;;;;;5054376;28;20042;-68
2022/01/26 10:01:24;;;;;;;50.22;24.60;;;;;;;;;;5052607;28;20135;-67
2022/01/26 10:03:52;;;;;;;60.00;27.10;;;;;;;;;;5053067;28;20136;-69
2022/01/26 10:06:22;;;;;;;58.20;26.67;;;;;;;;;;5054437;28;20053;-68
2022/01/26 10:19:03;;;;;;;61.78;29.35;;;;;;;;;;5053226;28;20056;-67
2022/01/26 10:21:31;;;;;;;67.93;29.58;;;;;;;;;;5054235;28;20549;-65
2022/01/26 10:23:58;;;;;;;70.53;31.45;;;;;;;;;;5053540;28;20091;-66
2022/01/26 10:26:31;;;;;;;49.05;22.85;;;;;;;;;;5052573;28;20053;-66
2022/01/26 10:28:59;;;;;;;53.70;24.63;;;;;;;;;;5053096;28;20057;-67
2022/01/26 10:31:26;;;;;;;55.40;24.15;;;;;;;;;;5052719;28;20924;-67
2022/01/26 10:34:11;;;;;;;51.83;24.63;;;;;;;;;;5052894;28;20053;-66
2022/01/26 10:36:38;;;;;;;63.67;30.20;;;;;;;;;;5051500;28;20063;-68
2022/01/26 10:39:08;;;;;;;58.50;27.05;;;;;;;;;;5051356;28;20140;-67
2022/01/26 10:41:36;;;;;;;49.45;22.90;;;;;;;;;;5051694;28;20088;-67
2022/01/26 10:44:03;;;;;;;55.72;24.17;;;;;;;;;;5054105;28;20562;-68
2022/01/26 10:46:31;;;;;;;58.88;26.88;;;;;;;;;;5052156;28;20053;-66
2022/01/26 10:54:19;;;;;;;46.40;23.15;;;;;;;;;;5070011;28;20131;-66
2022/01/26 10:56:51;;;;;;;52.53;23.90;;;;;;;;;;5052651;28;20526;-67
2022/01/26 10:59:19;;;;;;;61.47;25.70;;;;;;;;;;5052085;28;20054;-68
2022/01/26 11:01:45;;;;;;;56.13;25.40;;;;;;;;;;5053298;28;20084;-68
2022/01/26 11:04:12;;;;;;;66.07;27.88;;;;;;;;;;5055708;28;20428;-69
2022/01/26 11:06:40;;;;;;;48.75;24.17;;;;;;;;;;5073041;28;20471;-68
2022/01/26 11:09:11;;;;;;;46.42;22.92;;;;;;;;;;5071791;28;20052;-68
2022/01/26 11:11:41;;;;;;;55.70;24.65;;;;;;;;;;5073092;28;20077;-68
2022/01/26 11:14:24;;;;;;;59.50;25.90;;;;;;;;;;5069797;28;20059;-67
2022/01/26 11:16:54;;;;;;;49.45;25.02;;;;;;;;;;5057215;28;20112;-67
2022/01/26 11:19:23;;;;;;;47.72;23.08;;;;;;;;;;5058213;28;20050;-67
2022/01/26 11:21:49;;;;;;;47.42;23.38;;;;;;;;;;5069286;28;20053;-66
2022/01/26 11:24:41;;;;;;;54.20;27.07;;;;;;;;;;5072898;28;20053;-67
2022/01/26 11:27:08;;;;;;;53.72;23.35;;;;;;;;;;5041090;28;20058;-67
2022/01/26 11:29:37;;;;;;;41.40;21.33;;;;;;;;;;5059691;28;20064;-66
2022/01/26 11:32:12;;;;;;;51.28;23.02;;;;;;;;;;5057052;28;20053;-67
2022/01/26 11:34:39;;;;;;;48.05;23.67;;;;;;;;;;5051067;28;20053;-67
2022/01/26 11:37:11;;;;;;;42.97;21.70;;;;;;;;;;5054033;28;20058;-66
2022/01/26 11:45:15;;;;;;;45.50;22.35;;;;;;;;;;5058230;28;20790;-67
2022/01/26 11:47:56;;;;;;;46.83;20.80;;;;;;;;;;5058234;28;20041;-70
2022/01/26 11:50:25;;;;;;;45.58;20.98;;;;;;;;;;5058959;28;20054;-68
2022/01/26 11:53:05;;;;;;;44.97;20.63;;;;;;;;;;5054930;28;20588;-69
2022/01/26 11:55:48;;;;;;;45.03;22.00;;;;;;;;;;5051632;28;20060;-69
2022/01/26 11:58:17;;;;;;;53.35;21.65;;;;;;;;;;5054182;28;20052;-68
2022/01/26 12:00:53;;;;;;;41.53;20.38;;;;;;;;;;5051221;28;20045;-68
2022/01/26 12:03:31;;;;;;;52.58;24.13;;;;;;;;;;5053749;28;20049;-68
2022/01/26 12:05:59;;;;;;;45.25;21.50;;;;;;;;;;5038015;28;20058;-67
2022/01/26 12:08:28;;;;;;;46.00;23.33;;;;;;;;;;5056433;28;20053;-68
2022/01/26 12:10:55;;;;;;;48.50;22.88;;;;;;;;;;5053826;28;20057;-67
2022/01/26 12:13:24;;;;;;;61.70;29.00;;;;;;;;;;5055814;28;20085;-67
2022/01/26 12:15:55;;;;;;;57.05;25.77;;;;;;;;;;5054904;28;20540;-67
2022/01/26 12:18:31;;;;;;;53.53;27.15;;;;;;;;;;5055773;28;20111;-66
2022/01/26 12:35:14;;;;;;;46.70;22.50;;;;;;;;;;5054973;28;20574;-69
2022/01/26 12:38:08;;;;;;;51.75;22.02;;;;;;;;;;5055523;28;20057;-69
2022/01/26 12:43:17;;;;;;;46.85;23.30;;;;;;;;;;5055425;28;20543;-68
2022/01/26 12:45:54;;;;;;;46.85;22.70;;;;;;;;;;5054043;28;20057;-69
2022/01/26 12:48:21;;;;;;;44.65;22.75;;;;;;;;;;5054473;28;20144;-67
2022/01/26 12:50:48;;;;;;;44.60;22.23;;;;;;;;;;5053589;28;20056;-68
2022/01/26 12:53:21;;;;;;;45.65;22.25;;;;;;;;;;5055187;28;20167;-70
2022/01/26 12:55:52;;;;;;;47.97;23.95;;;;;;;;;;5055178;28;20080;-68
2022/01/26 12:58:23;;;;;;;47.95;24.02;;;;;;;;;;5055207;28;20176;-68
2022/01/26 13:00:49;;;;;;;44.53;23.40;;;;;;;;;;5054796;28;20058;-69
2022/01/26 13:03:19;;;;;;;43.55;21.60;;;;;;;;;;5054936;28;20084;-68
2022/01/26 13:05:46;;;;;;;45.72;22.10;;;;;;;;;;5053956;28;20063;-69
2022/01/26 13:08:13;;;;;;;50.00;22.38;;;;;;;;;;5068377;28;20504;-67
2022/01/26 13:10:40;;;;;;;41.38;21.75;;;;;;;;;;5058814;28;20073;-68
2022/01/26 13:13:10;;;;;;;38.40;20.00;;;;;;;;;;5054244;28;20128;-69
2022/01/26 13:15:44;;;;;;;45.90;22.85;;;;;;;;;;5053420;28;20156;-68
2022/01/26 13:18:25;;;;;;;38.55;19.92;;;;;;;;;;5055014;28;20167;-68
2022/01/26 13:21:28;;;;;;;42.42;20.48;;;;;;;;;;5055446;28;20140;-68
2022/01/26 13:24:25;;;;;;;45.38;22.50;;;;;;;;;;5055227;28;20513;-67
2022/01/26 13:26:57;;;;;;;40.47;20.23;;;;;;;;;;5054684;28;20153;-67
2022/01/26 13:29:40;;;;;;;42.03;22.25;;;;;;;;;;5054433;28;20053;-70
2022/01/26 13:32:38;;;;;;;42.00;20.10;;;;;;;;;;5053769;28;20469;-66
2022/01/26 13:38:01;;;;;;;47.60;22.88;;;;;;;;;;5048824;28;20576;-67
2022/01/26 13:43:49;;;;;;;48.20;22.52;;;;;;;;;;5053493;28;20505;-68
2022/01/26 13:46:51;;;;;;;48.63;21.67;;;;;;;;;;5057383;28;20045;-66
2022/01/26 13:49:29;;;;;;;41.58;21.70;;;;;;;;;;5053784;28;20059;-67
2022/01/26 13:57:43;;;;;;;46.70;19.90;;;;;;;;;;5056606;28;20128;-67
2022/01/26 13:59:59;;;;;;;41.30;20.98;;;;;;;;;;5054653;28;20949;-68
2022/01/26 14:02:29;;;;;;;46.92;22.38;;;;;;;;;;5053208;28;20484;-69
2022/01/26 14:04:56;;;;;;;43.60;21.52;;;;;;;;;;5052496;28;20061;-69
2022/01/26 14:07:22;;;;;;;42.95;21.92;;;;;;;;;;5051439;28;20156;-69
2022/01/26 14:09:49;;;;;;;44.80;20.80;;;;;;;;;;5053291;28;20046;-68
2022/01/26 14:12:20;;;;;;;38.28;20.38;;;;;;;;;;5053567;28;20562;-68
2022/01/26 14:14:52;;;;;;;41.33;21.83;;;;;;;;;;5057745;28;20408;-67
2022/01/26 14:17:28;;;;;;;38.60;20.05;;;;;;;;;;5064824;28;20054;-67
2022/01/26 14:20:08;;;;;;;44.03;20.27;;;;;;;;;;5053969;28;20080;-68
2022/01/26 14:22:49;;;;;;;39.88;20.70;;;;;;;;;;5053897;28;20057;-67
2022/01/26 14:27:47;;;;;;;41.25;20.38;;;;;;;;;;5055823;28;20054;-68
2022/01/26 14:30:29;;;;;;;40.95;20.58;;;;;;;;;;5052331;28;20050;-69
2022/01/26 14:40:54;;;;;;;51.22;22.00;;;;;;;;;;5051407;28;20181;-69
2022/01/26 14:54:31;;;;;;;50.83;21.63;;;;;;;;;;5050878;28;20152;-68
2022/01/26 15:19:21;;;;;;;39.92;21.23;;;;;;;;;;5056837;28;20148;-66
2022/01/26 15:41:21;;;;;;;36.45;17.38;;;;;;;;;;5048809;28;20064;-66
2022/01/26 15:44:27;;;;;;;30.13;17.17;;;;;;;;;;5052651;28;20513;-65
2022/01/26 16:12:42;;;;;;;41.85;22.27;;;;;;;;;;5051369;28;20085;-65
2022/01/26 16:17:10;;;;;;;39.10;22.33;;;;;;;;;;5050424;28;20056;-65
2022/01/26 16:19:58;;;;;;;41.83;23.30;;;;;;;;;;5051945;28;20045;-66
2022/01/26 16:35:08;;;;;;;50.33;25.00;;;;;;;;;;5052034;28;20053;-65
2022/01/26 17:12:09;;;;;;;57.20;31.08;;;;;;;;;;5054109;28;20053;-65
2022/01/26 17:26:55;;;;;;;58.42;29.02;;;;;;;;;;5045648;28;20061;-65
2022/01/26 17:55:13;;;;;;;64.63;31.40;;;;;;;;;;5054283;28;20057;-65
2022/01/26 18:06:41;;;;;;;56.90;31.08;;;;;;;;;;5052601;28;20049;-66
2022/01/26 18:16:38;;;;;;;58.13;29.70;;;;;;;;;;5053244;28;20136;-67
2022/01/26 18:32:52;;;;;;;53.13;27.02;;;;;;;;;;5050616;28;20065;-66
2022/01/26 18:49:17;;;;;;;53.85;27.77;;;;;;;;;;5053660;28;20588;-66
2022/01/26 18:51:48;;;;;;;50.95;27.58;;;;;;;;;;5052272;28;20054;-66
2022/01/26 18:54:16;;;;;;;55.40;28.85;;;;;;;;;;5053001;28;20578;-66
2022/01/26 18:56:42;;;;;;;51.72;28.63;;;;;;;;;;5052497;28;20061;-66
2022/01/26 18:59:10;;;;;;;56.15;29.85;;;;;;;;;;5053732;28;20060;-65
2022/01/26 19:01:36;;;;;;;56.47;28.55;;;;;;;;;;5055431;28;20520;-65
2022/01/26 19:04:35;;;;;;;58.58;29.45;;;;;;;;;;5057593;28;20057;-66
2022/01/26 19:07:02;;;;;;;49.83;28.00;;;;;;;;;;5055757;28;20057;-67
2022/01/26 19:09:35;;;;;;;54.28;28.42;;;;;;;;;;5052035;28;20076;-66
2022/01/26 19:12:05;;;;;;;52.65;28.80;;;;;;;;;;5050723;28;20133;-67
2022/01/26 19:14:50;;;;;;;54.35;27.98;;;;;;;;;;5052432;28;20053;-67
2022/01/26 19:17:37;;;;;;;58.35;30.52;;;;;;;;;;5050331;28;20587;-66
2022/01/26 19:25:16;;;;;;;55.70;27.77;;;;;;;;;;5054372;28;20053;-66
2022/01/26 19:27:50;;;;;;;53.00;28.27;;;;;;;;;;5052100;28;20144;-66
2022/01/26 19:31:26;;;;;;;43.72;25.17;;;;;;;;;;5067800;28;20059;-66
2022/01/26 19:44:42;;;;;;;55.75;24.88;;;;;;;;;;5058855;28;20060;-65
2022/01/26 19:47:17;;;;;;;55.97;26.13;;;;;;;;;;5052060;28;20045;-65
2022/01/26 19:52:29;;;;;;;56.67;28.20;;;;;;;;;;5055655;28;20045;-66
2022/01/26 19:54:56;;;;;;;53.28;25.33;;;;;;;;;;5071107;28;20057;-65
2022/01/26 19:57:22;;;;;;;60.03;29.60;;;;;;;;;;5070620;28;20063;-65
2022/01/26 19:59:49;;;;;;;54.35;26.10;;;;;;;;;;5049485;28;20049;-65
2022/01/26 20:02:15;;;;;;;52.03;26.05;;;;;;;;;;5052092;28;20054;-66
2022/01/26 20:04:43;;;;;;;50.97;25.58;;;;;;;;;;5052625;28;20499;-66
2022/01/26 20:07:15;;;;;;;50.03;24.80;;;;;;;;;;5052694;28;20092;-66
2022/01/26 20:09:46;;;;;;;53.63;26.80;;;;;;;;;;5053797;28;20057;-66
2022/01/26 20:12:26;;;;;;;52.20;26.15;;;;;;;;;;5053136;28;20583;-66
2022/01/26 20:14:55;;;;;;;47.55;25.98;;;;;;;;;;5065063;28;20140;-66
2022/01/26 20:17:21;;;;;;;49.80;26.48;;;;;;;;;;5051390;28;20151;-66
2022/01/26 20:19:47;;;;;;;53.47;25.48;;;;;;;;;;5052070;28;20054;-66
2022/01/26 20:22:14;;;;;;;49.40;27.02;;;;;;;;;;5054383;28;20269;-65
2022/01/26 20:24:40;;;;;;;51.63;25.70;;;;;;;;;;5075815;28;20496;-65
2022/01/26 20:27:08;;;;;;;48.42;26.55;;;;;;;;;;5063737;28;20136;-65
2022/01/26 20:29:41;;;;;;;46.47;25.75;;;;;;;;;;5055939;28;20057;-65
2022/01/26 20:32:08;;;;;;;50.03;25.35;;;;;;;;;;5055458;28;20500;-66
2022/01/26 20:34:35;;;;;;;52.53;24.77;;;;;;;;;;5055317;28;20053;-66
2022/01/26 20:37:01;;;;;;;53.03;24.90;;;;;;;;;;5055381;28;20132;-67
2022/01/26 20:39:27;;;;;;;52.45;26.92;;;;;;;;;;5055735;28;20050;-65
2022/01/26 20:41:54;;;;;;;46.60;24.73;;;;;;;;;;5059413;28;20106;-65
2022/01/26 20:44:20;;;;;;;48.05;24.27;;;;;;;;;;5075711;28;20061;-65
2022/01/26 20:46:47;;;;;;;48.85;24.27;;;;;;;;;;5058576;28;20139;-64
2022/01/26 20:49:14;;;;;;;46.08;24.02;;;;;;;;;;5062394;28;20465;-65
2022/01/26 20:51:40;;;;;;;51.17;24.52;;;;;;;;;;5058670;28;20065;-65
2022/01/26 20:54:09;;;;;;;43.45;23.30;;;;;;;;;;5059079;28;20152;-65
2022/01/26 20:56:36;;;;;;;45.13;23.88;;;;;;;;;;5053832;28;20156;-65
2022/01/26 20:59:02;;;;;;;46.00;22.92;;;;;;;;;;5061893;28;20528;-65
2022/01/26 21:01:29;;;;;;;47.17;24.42;;;;;;;;;;5055252;28;20072;-65
2022/01/26 21:03:55;;;;;;;52.15;24.45;;;;;;;;;;5073126;28;20065;-65